createdAt,value
2023-01-09T00:01:15.461Z,0.80
2023-01-09T00:03:43.522Z,0.80
2023-01-09T00:06:11.823Z,0.70
2023-01-09T00:08:39.722Z,0.90
2023-01-09T00:11:07.962Z,0.90
2023-01-09T00:13:36.660Z,0.97
2023-01-09T00:16:05.823Z,0.90
2023-01-09T00:18:35.331Z,1.00
2023-01-09T00:21:04.658Z,0.90
2023-01-09T00:23:32.829Z,0.80
2023-01-09T00:26:06.173Z,1.00
2023-01-09T00:28:34.295Z,0.70
2023-01-09T00:31:04.743Z,1.00
2023-01-09T00:33:37.367Z,1.07
2023-01-09T00:36:06.017Z,0.80
2023-01-09T00:38:34.032Z,1.03
2023-01-09T00:41:03.345Z,1.17
2023-01-09T00:43:34.775Z,0.90
2023-01-09T00:46:05.526Z,1.27
2023-01-09T00:48:36.373Z,1.20
2023-01-09T00:51:04.409Z,0.90
2023-01-09T00:53:34.272Z,1.00
2023-01-09T00:56:05.790Z,0.93
2023-01-09T00:58:34.524Z,0.90
2023-01-09T01:01:03.094Z,0.90
2023-01-09T01:03:31.071Z,0.93
2023-01-09T01:06:18.043Z,1.00
2023-01-09T01:08:46.604Z,1.00
2023-01-09T01:11:14.917Z,1.10
2023-01-09T01:13:43.049Z,1.00
2023-01-09T01:16:12.843Z,0.83
2023-01-09T01:18:41.772Z,1.10
2023-01-09T01:21:14.152Z,1.13
2023-01-09T01:23:42.446Z,1.20
2023-01-09T01:26:12.294Z,0.97
2023-01-09T01:28:40.437Z,1.03
2023-01-09T01:31:09.138Z,1.07
2023-01-09T01:33:37.655Z,1.00
2023-01-09T01:36:07.748Z,1.20
2023-01-09T01:38:37.290Z,1.10
2023-01-09T01:41:06.956Z,1.30
2023-01-09T01:43:51.292Z,1.20
2023-01-09T01:46:19.282Z,1.13
2023-01-09T01:48:49.152Z,1.13
2023-01-09T01:51:19.336Z,1.10
2023-01-09T01:53:52.437Z,1.10
2023-01-09T01:56:24.929Z,1.27
2023-01-09T01:58:56.614Z,0.97
2023-01-09T02:01:26.540Z,0.90
2023-01-09T02:03:57.562Z,1.17
2023-01-09T02:06:25.728Z,1.20
2023-01-09T02:08:55.380Z,1.20
2023-01-09T02:11:23.862Z,1.30
2023-01-09T02:13:52.440Z,1.63
2023-01-09T02:16:37.995Z,1.83
2023-01-09T02:19:23.828Z,1.73
2023-01-09T02:22:03.562Z,1.90
2023-01-09T02:24:56.873Z,3.10
2023-01-09T02:27:58.647Z,3.23
2023-01-09T02:30:41.883Z,4.03
2023-01-09T02:33:28.459Z,4.20
2023-01-09T02:36:09.355Z,4.33
2023-01-09T02:38:48.579Z,4.43
2023-01-09T02:41:22.468Z,3.83
2023-01-09T02:44:03.343Z,3.73
2023-01-09T02:46:32.714Z,2.93
2023-01-09T02:49:00.673Z,2.80
2023-01-09T02:51:36.903Z,2.90
2023-01-09T02:54:22.827Z,2.80
2023-01-09T02:57:14.410Z,2.63
2023-01-09T02:59:56.698Z,2.50
2023-01-09T03:02:42.272Z,2.90
2023-01-09T03:05:18.980Z,2.50
2023-01-09T03:07:52.505Z,2.73
2023-01-09T03:10:24.208Z,2.50
2023-01-09T03:12:54.950Z,2.30
2023-01-09T03:15:27.301Z,1.90
2023-01-09T03:17:58.142Z,2.10
2023-01-09T03:20:28.600Z,1.73
2023-01-09T03:22:58.473Z,1.90
2023-01-09T03:25:27.729Z,1.80
2023-01-09T03:27:58.717Z,1.90
2023-01-09T03:30:29.053Z,1.63
2023-01-09T03:32:58.621Z,1.50
2023-01-09T03:35:27.063Z,1.50
2023-01-09T03:37:55.642Z,1.50
2023-01-09T03:40:23.572Z,1.60
2023-01-09T03:42:51.489Z,1.50
2023-01-09T03:45:19.449Z,1.40
2023-01-09T03:47:47.382Z,1.33
2023-01-09T03:50:16.916Z,1.90
2023-01-09T03:52:44.834Z,1.43
2023-01-09T03:55:15.390Z,1.70
2023-01-09T03:57:43.508Z,1.40
2023-01-09T04:00:12.889Z,1.20
2023-01-09T04:02:40.927Z,1.50
2023-01-09T04:05:09.582Z,1.60
2023-01-09T04:07:38.916Z,1.70
2023-01-09T04:10:07.674Z,1.60
2023-01-09T04:12:35.576Z,1.40
2023-01-09T04:15:03.506Z,1.80
2023-01-09T04:17:31.428Z,1.60
2023-01-09T04:19:59.411Z,1.60
2023-01-09T04:22:27.341Z,1.63
2023-01-09T04:24:56.556Z,1.53
2023-01-09T04:27:24.686Z,1.70
2023-01-09T04:29:52.552Z,1.90
2023-01-09T04:32:20.498Z,1.67
2023-01-09T04:34:48.532Z,1.43
2023-01-09T04:37:16.953Z,1.53
2023-01-09T04:39:45.869Z,1.70
2023-01-09T04:42:15.359Z,2.00
2023-01-09T04:44:43.318Z,1.50
2023-01-09T04:47:13.483Z,1.43
2023-01-09T04:49:41.644Z,1.63
2023-01-09T04:52:09.650Z,1.63
2023-01-09T04:54:39.486Z,1.37
2023-01-09T04:57:07.920Z,1.67
2023-01-09T04:59:37.192Z,1.90
2023-01-09T05:02:05.248Z,1.57
2023-01-09T05:04:33.309Z,2.00
2023-01-09T05:07:01.296Z,1.30
2023-01-09T05:09:29.526Z,1.60
2023-01-09T05:11:57.471Z,1.50
2023-01-09T05:14:25.446Z,1.73
2023-01-09T05:16:54.729Z,1.77
2023-01-09T05:19:23.592Z,1.60
2023-01-09T05:21:51.581Z,1.50
2023-01-09T05:24:19.587Z,1.87
2023-01-09T05:26:47.484Z,1.60
2023-01-09T05:29:15.421Z,1.63
2023-01-09T05:31:43.435Z,1.87
2023-01-09T05:34:12.794Z,1.80
2023-01-09T05:36:40.787Z,1.80
2023-01-09T05:39:08.711Z,1.77
2023-01-09T05:41:36.628Z,1.77
2023-01-09T05:44:04.848Z,1.63
2023-01-09T05:46:33.079Z,1.60
2023-01-09T05:49:00.955Z,1.70
2023-01-09T05:51:31.703Z,1.67
2023-01-09T05:53:59.702Z,2.10
2023-01-09T05:56:27.660Z,1.60
2023-01-09T05:58:55.595Z,1.57
2023-01-09T06:01:23.980Z,1.70
2023-01-09T06:03:52.048Z,2.10
2023-01-09T06:06:20.005Z,1.60
2023-01-09T06:08:49.264Z,1.83
2023-01-09T06:11:17.189Z,1.80
2023-01-09T06:13:45.117Z,2.30
2023-01-09T06:16:13.910Z,1.80
2023-01-09T06:18:41.931Z,1.70
2023-01-09T06:21:09.862Z,1.90
2023-01-09T06:23:37.811Z,2.00
2023-01-09T06:26:07.111Z,1.77
2023-01-09T06:28:34.996Z,2.07
2023-01-09T06:31:03.078Z,1.90
2023-01-09T06:33:31.947Z,1.90
2023-01-09T06:35:59.873Z,2.27
2023-01-09T06:38:27.767Z,2.00
2023-01-09T06:40:55.631Z,2.27
2023-01-09T06:43:25.015Z,2.20
2023-01-09T06:45:52.940Z,2.00
2023-01-09T06:48:20.921Z,2.13
2023-01-09T06:50:49.601Z,1.80
2023-01-09T06:53:17.576Z,2.30
2023-01-09T06:55:45.700Z,2.20
2023-01-09T06:58:14.068Z,2.20
2023-01-09T07:00:43.804Z,1.97
2023-01-09T07:03:12.021Z,2.00
2023-01-09T07:05:42.311Z,2.20
2023-01-09T07:08:10.660Z,2.10
2023-01-09T07:10:38.598Z,1.83
2023-01-09T07:13:06.455Z,1.80
2023-01-09T07:15:34.493Z,1.80
2023-01-09T07:18:04.261Z,2.00
2023-01-09T07:20:32.383Z,1.73
2023-01-09T07:23:00.318Z,1.93
2023-01-09T07:25:28.182Z,1.70
2023-01-09T07:27:56.043Z,2.30
2023-01-09T07:30:24.144Z,2.37
2023-01-09T07:32:52.100Z,1.80
2023-01-09T07:35:21.311Z,2.00
2023-01-09T07:37:49.248Z,2.10
2023-01-09T07:40:17.474Z,1.67
2023-01-09T07:42:45.460Z,2.27
2023-01-09T07:45:13.468Z,1.80
2023-01-09T07:47:42.408Z,1.73
2023-01-09T07:50:11.250Z,2.00
2023-01-09T07:52:40.568Z,1.70
2023-01-09T07:55:10.084Z,1.67
2023-01-09T07:57:37.981Z,1.77
2023-01-09T08:00:07.416Z,1.90
2023-01-09T08:02:41.342Z,2.00
2023-01-09T08:05:14.738Z,1.80
2023-01-09T08:07:44.273Z,1.67
2023-01-09T08:10:12.929Z,2.57
2023-01-09T08:12:43.895Z,1.67
2023-01-09T08:15:12.443Z,2.00
2023-01-09T08:17:41.975Z,1.90
2023-01-09T08:20:11.986Z,1.67
2023-01-09T08:22:40.083Z,1.97
2023-01-09T08:25:12.487Z,1.73
2023-01-09T08:27:40.785Z,1.90
2023-01-09T08:30:10.414Z,1.97
2023-01-09T08:32:38.390Z,1.50
2023-01-09T08:35:07.181Z,1.47
2023-01-09T08:37:35.107Z,1.67
2023-01-09T08:40:03.133Z,1.50
2023-01-09T08:42:50.079Z,1.50
2023-01-09T08:45:35.826Z,1.57
2023-01-09T08:48:03.707Z,1.53
2023-01-09T08:50:31.624Z,1.50
2023-01-09T08:52:59.566Z,1.70
2023-01-09T08:55:27.848Z,1.57
2023-01-09T08:57:57.067Z,1.80
2023-01-09T09:00:26.519Z,1.40
2023-01-09T09:02:56.041Z,1.50
2023-01-09T09:05:24.840Z,1.70
2023-01-09T09:07:54.886Z,1.30
2023-01-09T09:10:24.008Z,1.30
2023-01-09T09:12:53.340Z,1.80
2023-01-09T09:15:24.445Z,1.67
2023-01-09T09:17:54.480Z,1.60
2023-01-09T09:20:23.030Z,1.90
2023-01-09T09:22:51.356Z,2.30
2023-01-09T09:25:19.898Z,1.90
2023-01-09T09:27:48.120Z,1.90
2023-01-09T09:30:17.513Z,1.80
2023-01-09T09:32:47.581Z,1.90
2023-01-09T09:35:17.677Z,1.97
2023-01-09T09:37:54.463Z,1.70
2023-01-09T09:40:38.607Z,1.80
2023-01-09T09:43:56.156Z,1.80
2023-01-09T09:46:33.719Z,1.73
2023-01-09T09:49:07.443Z,1.70
2023-01-09T09:51:54.401Z,2.07
2023-01-09T09:54:28.124Z,1.70
2023-01-09T09:57:00.132Z,1.70
2023-01-09T09:59:30.784Z,2.20
2023-01-09T10:02:03.321Z,2.10
2023-01-09T10:04:34.608Z,2.30
2023-01-09T10:07:09.334Z,2.00
2023-01-09T10:09:48.279Z,2.00
2023-01-09T10:12:28.041Z,2.10
2023-01-09T10:14:57.401Z,2.30
2023-01-09T10:17:51.784Z,1.90
2023-01-09T10:20:46.832Z,2.00
2023-01-09T10:23:43.396Z,2.07
2023-01-09T10:26:16.051Z,2.20
2023-01-09T10:29:06.192Z,1.80
2023-01-09T10:31:43.719Z,2.13
2023-01-09T10:34:20.541Z,2.20
2023-01-09T10:37:02.484Z,2.10
2023-01-09T10:39:38.263Z,2.33
2023-01-09T10:42:14.764Z,1.87
2023-01-09T10:44:48.752Z,1.83
2023-01-09T10:47:18.763Z,1.90
2023-01-09T10:49:48.810Z,2.00
2023-01-09T10:52:20.666Z,1.87
2023-01-09T10:54:55.834Z,2.07
2023-01-09T10:57:39.348Z,2.00
2023-01-09T11:00:14.931Z,2.13
2023-01-09T11:02:43.417Z,1.87
2023-01-09T11:05:15.860Z,2.37
2023-01-09T11:07:49.277Z,2.10
2023-01-09T11:10:18.432Z,2.10
2023-01-09T11:12:47.559Z,2.00
2023-01-09T11:15:31.720Z,2.40
2023-01-09T11:18:21.916Z,2.13
2023-01-09T11:20:49.895Z,2.37
2023-01-09T11:23:31.814Z,2.13
2023-01-09T11:26:01.247Z,2.20
2023-01-09T11:28:29.726Z,2.03
2023-01-09T11:31:00.931Z,2.20
2023-01-09T11:33:31.308Z,2.60
2023-01-09T11:36:05.012Z,2.60
2023-01-09T11:38:48.273Z,2.30
2023-01-09T11:41:19.654Z,2.40
2023-01-09T11:43:49.438Z,2.30
2023-01-09T11:46:35.748Z,2.40
2023-01-09T11:49:05.905Z,2.30
2023-01-09T11:51:35.513Z,2.50
2023-01-09T11:54:21.909Z,2.50
2023-01-09T11:56:51.175Z,3.30
2023-01-09T11:59:22.207Z,2.60
2023-01-09T12:02:24.119Z,2.70
2023-01-09T12:04:55.586Z,2.80
2023-01-09T12:07:54.823Z,2.50
2023-01-09T12:10:41.469Z,2.70
2023-01-09T12:13:19.507Z,2.80
2023-01-09T12:15:56.947Z,2.40
2023-01-09T12:18:38.584Z,2.90
2023-01-09T12:21:23.206Z,2.80
2023-01-09T12:24:09.339Z,2.70
2023-01-09T12:26:46.896Z,2.90
2023-01-09T12:29:29.699Z,2.90
2023-01-09T12:32:25.477Z,2.90
2023-01-09T12:35:03.206Z,2.90
2023-01-09T12:37:52.376Z,2.90
2023-01-09T12:40:32.488Z,3.10
2023-01-09T12:43:10.709Z,3.10
2023-01-09T12:45:52.378Z,2.77
2023-01-09T12:48:36.558Z,3.00
2023-01-09T12:51:17.334Z,2.80
2023-01-09T12:53:52.202Z,2.90
2023-01-09T12:56:25.275Z,3.20
2023-01-09T12:58:58.411Z,2.93
2023-01-09T13:01:30.549Z,3.10
2023-01-09T13:04:11.006Z,2.90
2023-01-09T13:06:44.508Z,3.17
2023-01-09T13:09:22.698Z,3.07
2023-01-09T13:11:59.899Z,2.73
2023-01-09T13:14:41.144Z,3.03
2023-01-09T13:17:15.256Z,3.20
2023-01-09T13:19:46.049Z,3.40
2023-01-09T13:22:16.040Z,3.03
2023-01-09T13:25:06.845Z,2.73
2023-01-09T13:27:40.351Z,2.77
2023-01-09T13:30:22.001Z,3.00
2023-01-09T13:33:03.030Z,3.23
2023-01-09T13:35:31.009Z,3.57
2023-01-09T13:37:58.976Z,3.10
2023-01-09T13:40:32.873Z,2.93
2023-01-09T13:43:03.922Z,3.17
2023-01-09T13:45:35.397Z,3.13
2023-01-09T13:48:41.485Z,3.10
2023-01-09T13:51:37.944Z,3.20
2023-01-09T13:54:10.336Z,2.80
2023-01-09T13:57:11.468Z,3.30
2023-01-09T13:59:39.396Z,3.00
2023-01-09T14:02:49.698Z,3.30
2023-01-09T14:05:56.535Z,2.67
2023-01-09T14:08:27.340Z,2.83
2023-01-09T14:10:57.939Z,3.17
2023-01-09T14:13:28.300Z,2.73
2023-01-09T14:16:05.472Z,3.33
2023-01-09T14:18:38.620Z,3.57
2023-01-09T14:21:09.142Z,3.00
2023-01-09T14:23:51.427Z,3.30
2023-01-09T14:26:23.955Z,3.47
2023-01-09T14:28:52.596Z,3.30
2023-01-09T14:31:31.611Z,4.07
2023-01-09T14:34:31.156Z,3.73
2023-01-09T14:37:02.255Z,3.87
2023-01-09T14:39:32.734Z,4.13
2023-01-09T14:42:07.896Z,4.20
2023-01-09T14:44:48.037Z,3.80
2023-01-09T14:47:19.824Z,3.90
2023-01-09T14:49:55.115Z,3.93
2023-01-09T14:52:27.794Z,3.77
2023-01-09T14:54:59.313Z,4.47
2023-01-09T14:57:28.957Z,3.97
2023-01-09T14:59:58.752Z,4.50
2023-01-09T15:02:29.070Z,4.50
2023-01-09T15:05:02.380Z,4.80
2023-01-09T15:07:34.696Z,4.10
2023-01-09T15:10:04.048Z,4.37
2023-01-09T15:12:32.928Z,4.90
2023-01-09T15:15:04.658Z,4.50
2023-01-09T15:17:36.033Z,4.80
2023-01-09T15:20:07.847Z,4.70
2023-01-09T15:22:37.969Z,5.33
2023-01-09T15:25:33.671Z,5.30
2023-01-09T15:28:31.993Z,5.00
2023-01-09T15:31:07.141Z,5.00
2023-01-09T15:33:36.067Z,5.67
2023-01-09T15:36:11.995Z,5.13
2023-01-09T15:38:42.378Z,5.60
2023-01-09T15:41:12.876Z,5.37
2023-01-09T15:43:42.927Z,5.27
2023-01-09T15:46:12.245Z,5.50
2023-01-09T15:48:40.233Z,5.93
2023-01-09T15:51:13.373Z,6.63
2023-01-09T15:53:42.289Z,6.87
2023-01-09T15:56:20.156Z,5.97
2023-01-09T15:58:49.278Z,5.97
2023-01-09T16:01:34.265Z,6.57
2023-01-09T16:04:07.872Z,6.20
2023-01-09T16:06:45.087Z,6.63
2023-01-09T16:09:17.939Z,6.87
2023-01-09T16:11:51.884Z,7.23
2023-01-09T16:14:23.123Z,6.17
2023-01-09T16:16:53.087Z,5.87
2023-01-09T16:19:32.279Z,5.57
2023-01-09T16:22:04.311Z,4.40
2023-01-09T16:24:40.975Z,4.77
2023-01-09T16:27:23.809Z,4.60
2023-01-09T16:29:57.444Z,4.20
2023-01-09T16:32:28.979Z,4.40
2023-01-09T16:34:59.540Z,3.67
2023-01-09T16:37:29.349Z,4.10
2023-01-09T16:40:25.097Z,4.73
2023-01-09T16:43:00.948Z,4.20
2023-01-09T16:45:31.949Z,4.23
2023-01-09T16:48:00.150Z,4.50
2023-01-09T16:50:28.073Z,4.80
2023-01-09T16:52:58.346Z,4.90
2023-01-09T16:55:26.344Z,4.50
2023-01-09T16:57:54.335Z,4.83
2023-01-09T17:00:22.799Z,4.87
2023-01-09T17:02:50.707Z,4.93
2023-01-09T17:05:18.644Z,5.07
2023-01-09T17:07:46.576Z,4.63
2023-01-09T17:10:21.979Z,4.73
2023-01-09T17:12:50.063Z,4.67
2023-01-09T17:15:17.982Z,5.20
2023-01-09T17:17:45.978Z,4.50
2023-01-09T17:20:18.394Z,4.23
2023-01-09T17:22:46.483Z,3.87
2023-01-09T17:25:33.934Z,2.97
2023-01-09T17:28:21.511Z,3.40
2023-01-09T17:30:49.458Z,3.00
2023-01-09T17:33:18.564Z,2.77
2023-01-09T17:35:46.643Z,3.53
2023-01-09T17:38:15.549Z,3.40
2023-01-09T17:40:43.714Z,3.43
2023-01-09T17:43:13.452Z,2.87
2023-01-09T17:45:42.224Z,2.90
2023-01-09T17:48:16.422Z,2.87
2023-01-09T17:50:44.555Z,3.90
2023-01-09T17:53:12.841Z,3.77
2023-01-09T17:55:41.549Z,3.40
2023-01-09T17:58:20.163Z,3.83
2023-01-09T18:00:48.567Z,3.00
2023-01-09T18:03:16.522Z,3.20
2023-01-09T18:05:44.551Z,3.63
2023-01-09T18:08:14.132Z,3.50
2023-01-09T18:10:43.803Z,3.37
2023-01-09T18:13:13.124Z,3.30
2023-01-09T18:15:43.088Z,4.03
2023-01-09T18:18:11.426Z,4.33
2023-01-09T18:20:40.330Z,4.20
2023-01-09T18:23:08.561Z,3.63
2023-01-09T18:25:39.347Z,4.27
2023-01-09T18:28:07.775Z,3.40
2023-01-09T18:30:37.532Z,3.10
2023-01-09T18:33:05.485Z,3.67
2023-01-09T18:35:34.595Z,3.70
2023-01-09T18:38:02.518Z,4.00
2023-01-09T18:40:30.775Z,3.33
2023-01-09T18:42:58.689Z,3.70
2023-01-09T18:45:26.677Z,2.93
2023-01-09T18:47:56.589Z,2.97
2023-01-09T18:50:24.455Z,3.23
2023-01-09T18:52:53.084Z,3.17
2023-01-09T18:55:21.801Z,3.00
2023-01-09T18:57:49.890Z,2.83
2023-01-09T19:00:18.116Z,2.80
2023-01-09T19:02:45.981Z,2.40
2023-01-09T19:05:15.431Z,2.30
2023-01-09T19:07:43.312Z,2.80
2023-01-09T19:10:12.456Z,2.40
2023-01-09T19:12:40.590Z,3.00
2023-01-09T19:15:11.384Z,3.30
2023-01-09T19:17:39.638Z,3.07
2023-01-09T19:20:09.002Z,3.10
2023-01-09T19:22:38.352Z,3.47
2023-01-09T19:25:07.155Z,3.07
2023-01-09T19:27:35.043Z,3.50
2023-01-09T19:30:03.096Z,3.47
2023-01-09T19:32:30.960Z,3.57
2023-01-09T19:34:58.861Z,3.43
2023-01-09T19:37:26.802Z,3.83
2023-01-09T19:39:56.039Z,4.10
2023-01-09T19:42:23.872Z,4.90
2023-01-09T19:44:51.739Z,5.90
2023-01-09T19:47:19.663Z,5.60
2023-01-09T19:49:47.542Z,6.13
2023-01-09T19:52:15.440Z,6.23
2023-01-09T19:54:43.369Z,7.33
2023-01-09T19:57:12.551Z,7.87
2023-01-09T19:59:40.581Z,8.20
2023-01-09T20:02:10.743Z,8.83
2023-01-09T20:04:39.072Z,10.53
2023-01-09T20:07:07.348Z,8.90
2023-01-09T20:09:35.366Z,8.63
2023-01-09T20:12:05.175Z,8.73
2023-01-09T20:14:36.454Z,8.77
2023-01-09T20:17:04.575Z,7.27
2023-01-09T20:19:33.121Z,7.30
2023-01-09T20:22:01.444Z,7.63
2023-01-09T20:24:29.582Z,7.57
2023-01-09T20:26:57.460Z,7.30
2023-01-09T20:29:25.579Z,6.60
2023-01-09T20:31:54.868Z,6.73
2023-01-09T20:34:22.841Z,6.47
2023-01-09T20:36:50.804Z,5.90
2023-01-09T20:39:18.769Z,6.20
2023-01-09T20:41:46.702Z,5.37
2023-01-09T20:44:15.572Z,5.60
2023-01-09T20:46:47.428Z,5.73
2023-01-09T20:49:19.088Z,5.10
2023-01-09T20:51:49.422Z,4.80
2023-01-09T20:54:18.313Z,4.50
2023-01-09T20:56:46.193Z,4.40
2023-01-09T20:59:16.926Z,3.93
2023-01-09T21:01:44.917Z,4.37
2023-01-09T21:04:12.908Z,4.13
2023-01-09T21:06:42.449Z,4.27
2023-01-09T21:09:10.373Z,3.70
2023-01-09T21:11:38.372Z,4.37
2023-01-09T21:14:06.260Z,3.60
2023-01-09T21:16:34.185Z,4.13
2023-01-09T21:19:02.186Z,4.07
2023-01-09T21:21:30.791Z,4.47
2023-01-09T21:24:01.504Z,4.50
2023-01-09T21:26:30.645Z,4.40
2023-01-09T21:29:00.591Z,4.50
2023-01-09T21:31:34.488Z,4.40
2023-01-09T21:34:04.901Z,5.87
2023-01-09T21:36:33.293Z,5.60
2023-01-09T21:39:02.581Z,5.20
2023-01-09T21:41:47.957Z,5.10
2023-01-09T21:44:33.396Z,4.93
2023-01-09T21:47:03.585Z,5.17
2023-01-09T21:49:34.831Z,5.17
2023-01-09T21:52:04.492Z,4.90
2023-01-09T21:54:34.804Z,5.23
2023-01-09T21:57:03.915Z,5.20
2023-01-09T21:59:31.832Z,5.70
2023-01-09T22:02:00.104Z,6.10
2023-01-09T22:04:30.320Z,5.53
2023-01-09T22:06:58.300Z,5.77
2023-01-09T22:09:26.337Z,5.93
2023-01-09T22:11:55.599Z,5.33
2023-01-09T22:14:23.618Z,5.13
2023-01-09T22:16:51.593Z,5.67
2023-01-09T22:19:19.593Z,5.37
2023-01-09T22:21:47.721Z,4.90
2023-01-09T22:24:17.235Z,4.87
2023-01-09T22:26:45.653Z,5.07
2023-01-09T22:29:16.027Z,4.30
2023-01-09T22:31:44.155Z,4.30
2023-01-09T22:34:15.977Z,4.13
2023-01-09T22:36:44.334Z,3.67
2023-01-09T22:39:14.139Z,3.93
2023-01-09T22:41:42.492Z,4.07
2023-01-09T22:44:11.655Z,3.00
2023-01-09T22:46:41.028Z,4.00
2023-01-09T22:49:09.006Z,4.07
2023-01-09T22:51:36.911Z,3.97
2023-01-09T22:54:05.284Z,3.20
2023-01-09T22:56:33.569Z,3.57
2023-01-09T22:59:01.486Z,3.57
2023-01-09T23:01:29.618Z,3.30
2023-01-09T23:03:58.874Z,4.03
2023-01-09T23:06:26.802Z,3.87
2023-01-09T23:08:54.751Z,3.30
2023-01-09T23:11:38.780Z,3.67
2023-01-09T23:14:06.748Z,3.90
2023-01-09T23:16:34.812Z,3.77
2023-01-09T23:19:05.227Z,3.93
2023-01-09T23:21:33.160Z,3.77
2023-01-09T23:24:01.020Z,4.10
2023-01-09T23:26:28.891Z,3.80
2023-01-09T23:28:56.795Z,4.10
2023-01-09T23:31:25.893Z,4.00
2023-01-09T23:33:53.800Z,3.73
2023-01-09T23:36:23.331Z,4.20
2023-01-09T23:38:51.277Z,4.33
2023-01-09T23:41:19.444Z,4.10
2023-01-09T23:43:46.458Z,3.80
2023-01-09T23:46:14.732Z,3.80
2023-01-09T23:48:42.721Z,4.20
2023-01-09T23:51:10.585Z,4.50
2023-01-09T23:53:39.796Z,4.03
2023-01-09T23:56:07.865Z,4.13
2023-01-09T23:58:36.842Z,4.23
